Decoded Metar for LLIB (ROSH PINA in ISRAEL) (IATA:RPN) | Meteo·Mobile Aviation Weather
aviador You're here:

LLIB Decoded Metar

ROSH PINA in ISRAEL
Report Time2018-08-18 07:50:00
UTC Time2018-08-18 08:16:03
Flight Rules vfr VFR
Wind150° at 04 kt
W.Decomp.*RWY 15: 4.0 kt HW 0.2 kt LCW
RWY 23: 0.5 kt HW 4 kt LCW
W.Rank150° ranks 3
Current wind is below 150° avg. (6.0)
Visibility9999 m
Phenomena:N/A
Clouds:Few 045 Hf
Expected CloudBase > 3,600 ft AGL from Temp-Dew spread
CeilingNone
Temp29°C (ISA +16)
Dew Point20°C (58% RH)
Heat Index30.7°C
QNH1009 hPa
Density Alt3,186 ft
Elevation922 ft
Report Wrong Elevation
Raw Report
LLIB 180750Z 15004KT 100V210 9999 FEW045 29/20 Q1009=

Extra information for LLIB:More info

Metar Taf Metar & Taf Last 4 Metars F.Rules Stats Wind Profile Meteogram Temp Stats Airport Information Weather charts Add Link Nearby VenuesMetar ALERT Operation Metar Decoded Social comments